Time;durP1;ratioP1;P1;durP2;ratioP2;P2;SDS_P1;SDS_P2;PMS_P1;PMS_P2;Temp;Humidity;BMP_temperature;BMP_pressure;BME280_temperature;BME280_humidity;BME280_pressure;Samples;Min_cycle;Max_cycle;Signal;HPM_P1;HPM_P2
2023/05/13 00:00:16;;;;;;;;;;;;;;;15.91;51.47;102410.41;7352595;19;19911;-61
2023/05/13 00:02:42;;;;;;;;;;;;;;;15.86;51.54;102417.53;7354938;19;20736;-61
2023/05/13 00:05:07;;;;;;;;;;;;;;;15.81;52.01;102415.88;7352959;19;19915;-61
2023/05/13 00:07:32;;;;;;;;;;;;;;;15.77;52.08;102408.91;7352321;19;19975;-61
2023/05/13 00:09:58;;;;;;;;;;;;;;;15.41;51.90;102356.81;7353461;19;21707;-61
2023/05/13 00:12:23;;;;;;;;;;;;;;;15.70;51.84;102409.91;7354021;19;19923;-61
2023/05/13 00:14:48;;;;;;;;;;;;;;;15.66;51.94;102405.59;7354445;19;20016;-61
2023/05/13 00:17:13;;;;;;;;;;;;;;;15.61;52.36;102396.84;7352471;19;20009;-61
2023/05/13 00:19:39;;;;;;;;;;;;;;;15.57;52.31;102406.56;7355168;19;19931;-61
2023/05/13 00:22:05;;;;;;;;;;;;;;;15.53;52.09;102402.25;7353992;19;19927;-61
2023/05/13 00:24:30;;;;;;;;;;;;;;;15.49;52.01;102399.69;7354299;19;19923;-61
2023/05/13 00:26:55;;;;;;;;;;;;;;;15.46;52.31;102391.81;7354003;19;20002;-61
2023/05/13 00:29:20;;;;;;;;;;;;;;;15.41;52.22;102394.56;7352047;19;19914;-61
2023/05/13 00:31:46;;;;;;;;;;;;;;;15.37;52.14;102394.63;7354123;19;19922;-61
2023/05/13 00:34:11;;;;;;;;;;;;;;;15.34;52.70;102392.03;7354444;19;20640;-61
2023/05/13 00:36:36;;;;;;;;;;;;;;;15.29;52.26;102390.31;7353600;19;19982;-61
2023/05/13 00:39:02;;;;;;;;;;;;;;;15.26;52.76;102394.78;7352995;19;20412;-61
2023/05/13 00:41:27;;;;;;;;;;;;;;;15.22;52.41;102393.97;7353373;19;19926;-61
2023/05/13 00:43:54;;;;;;;;;;;;;;;15.19;52.52;102390.50;7353474;19;19921;-61
2023/05/13 00:46:19;;;;;;;;;;;;;;;15.16;52.86;102386.16;7354938;19;19972;-61
2023/05/13 00:48:44;;;;;;;;;;;;;;;15.13;52.69;102387.97;7352598;19;19922;-61
2023/05/13 00:51:09;;;;;;;;;;;;;;;15.08;52.91;102388.03;7354873;19;20327;-61
2023/05/13 00:53:36;;;;;;;;;;;;;;;15.05;52.67;102390.69;7351753;19;19919;-61
2023/05/13 00:56:01;;;;;;;;;;;;;;;15.01;52.97;102391.66;7355960;19;20013;-61
2023/05/13 00:58:26;;;;;;;;;;;;;;;14.96;52.66;102391.72;7351941;19;20333;-61
2023/05/13 01:01:10;;;;;;;;;;;;;;;14.92;53.10;102389.13;7355113;19;19929;-61
2023/05/13 01:03:44;;;;;;;;;;;;;;;14.87;53.14;102390.97;7349601;19;19939;-61
2023/05/13 01:06:12;;;;;;;;;;;;;;;14.79;52.97;102389.28;7352963;19;20316;-61
2023/05/13 01:08:58;;;;;;;;;;;;;;;14.73;53.24;102389.38;7353837;19;19923;-61
2023/05/13 01:11:26;;;;;;;;;;;;;;;14.63;53.33;102387.75;7346388;19;19924;-61
2023/05/13 01:13:56;;;;;;;;;;;;;;;14.57;53.40;102387.84;7352827;19;19922;-61
2023/05/13 01:16:29;;;;;;;;;;;;;;;14.18;53.48;102332.19;7347640;19;20675;-61
2023/05/13 01:19:00;;;;;;;;;;;;;;;14.47;53.85;102380.91;7355300;19;19923;-61
2023/05/13 01:21:26;;;;;;;;;;;;;;;14.42;53.45;102388.00;7350941;19;19922;-61
2023/05/13 01:23:51;;;;;;;;;;;;;;;14.39;53.78;102388.00;7354677;19;20266;-61
2023/05/13 01:26:17;;;;;;;;;;;;;;;14.34;53.46;102384.56;7347523;19;19922;-61
2023/05/13 01:28:42;;;;;;;;;;;;;;;14.30;53.90;102383.75;7354474;19;19923;-61
2023/05/13 01:31:09;;;;;;;;;;;;;;;14.25;53.73;102372.41;7349283;19;19989;-61
2023/05/13 01:33:35;;;;;;;;;;;;;;;14.22;54.17;102383.81;7353525;19;19926;-61
2023/05/13 01:36:01;;;;;;;;;;;;;;;14.19;53.77;102381.25;7350501;19;20220;-61
2023/05/13 01:38:27;;;;;;;;;;;;;;;14.16;53.85;102376.00;7356626;19;19918;-61
2023/05/13 01:40:53;;;;;;;;;;;;;;;14.13;53.99;102383.03;7345853;19;19928;-61
2023/05/13 01:43:18;;;;;;;;;;;;;;;14.10;53.98;102385.72;7355034;19;19926;-61
2023/05/13 01:45:44;;;;;;;;;;;;;;;14.06;54.15;102379.63;7350134;19;20534;-61
2023/05/13 01:48:09;;;;;;;;;;;;;;;14.03;53.81;102374.38;7348313;19;20419;-61
2023/05/13 01:50:34;;;;;;;;;;;;;;;14.00;53.99;102379.69;7352890;19;19927;-61
2023/05/13 01:52:59;;;;;;;;;;;;;;;13.97;53.72;102377.09;7348415;19;20383;-61
2023/05/13 01:55:26;;;;;;;;;;;;;;;13.94;53.52;102374.50;7350531;19;19930;-61
2023/05/13 01:57:51;;;;;;;;;;;;;;;13.53;53.99;102314.47;7340504;19;20007;-61
2023/05/13 02:00:16;;;;;;;;;;;;;;;13.84;54.52;102383.31;7351158;19;20005;-61
2023/05/13 02:02:41;;;;;;;;;;;;;;;13.79;54.53;102379.88;7351036;19;19947;-61
2023/05/13 02:05:07;;;;;;;;;;;;;;;13.73;54.15;102384.28;7351879;19;20364;-61
2023/05/13 02:07:33;;;;;;;;;;;;;;;13.70;54.30;102376.47;7355471;19;19915;-61
2023/05/13 02:09:58;;;;;;;;;;;;;;;13.66;54.20;102382.63;7348859;19;19926;-61
2023/05/13 02:12:27;;;;;;;;;;;;;;;13.63;54.27;102377.38;7354863;19;19939;-61
2023/05/13 02:14:53;;;;;;;;;;;;;;;13.61;54.32;102378.28;7348015;19;19923;-61
2023/05/13 02:17:18;;;;;;;;;;;;;;;13.57;54.55;102374.81;7354372;19;19939;-61
2023/05/13 02:19:44;;;;;;;;;;;;;;;13.55;54.30;102379.22;7351043;19;19921;-61
2023/05/13 02:22:09;;;;;;;;;;;;;;;13.52;54.39;102378.38;7352675;19;19940;-61
2023/05/13 02:24:38;;;;;;;;;;;;;;;13.49;54.68;102388.03;7352917;19;19925;-61
2023/05/13 02:27:04;;;;;;;;;;;;;;;13.47;54.36;102386.28;7352529;19;19927;-61
2023/05/13 02:29:29;;;;;;;;;;;;;;;13.43;54.61;102388.06;7352899;19;19937;-61
2023/05/13 02:31:54;;;;;;;;;;;;;;;13.40;54.81;102382.84;7351232;19;19950;-61
2023/05/13 02:34:20;;;;;;;;;;;;;;;13.38;54.83;102383.72;7351311;19;19922;-61
2023/05/13 02:36:47;;;;;;;;;;;;;;;13.35;54.52;102383.75;7353693;19;20367;-61
2023/05/13 02:39:12;;;;;;;;;;;;;;;13.32;54.73;102375.88;7346028;19;19926;-61
2023/05/13 02:41:37;;;;;;;;;;;;;;;13.30;55.10;102380.28;7355708;19;20345;-61
2023/05/13 02:44:03;;;;;;;;;;;;;;;13.26;54.90;102383.81;7344870;19;19925;-61
2023/05/13 02:46:28;;;;;;;;;;;;;;;13.22;54.81;102375.94;7352774;19;20007;-61
2023/05/13 02:48:54;;;;;;;;;;;;;;;13.20;54.88;102382.06;7349108;19;19933;-61
2023/05/13 02:51:19;;;;;;;;;;;;;;;13.16;55.10;102373.34;7354497;19;19931;-61
2023/05/13 02:53:44;;;;;;;;;;;;;;;13.13;54.97;102373.38;7347606;19;20848;-61
2023/05/13 02:56:09;;;;;;;;;;;;;;;13.10;54.78;102376.00;7350278;19;20998;-61
2023/05/13 02:58:35;;;;;;;;;;;;;;;13.07;54.84;102377.78;7352303;19;19926;-61
2023/05/13 03:01:01;;;;;;;;;;;;;;;13.03;55.11;102369.06;7354727;19;19919;-61
2023/05/13 03:03:26;;;;;;;;;;;;;;;13.01;54.97;102365.56;7356306;19;19915;-61
2023/05/13 03:05:51;;;;;;;;;;;;;;;12.97;55.12;102362.09;7341288;19;19929;-61
2023/05/13 03:08:16;;;;;;;;;;;;;;;12.96;55.02;102364.72;7359763;19;19929;-61
2023/05/13 03:10:41;;;;;;;;;;;;;;;12.93;55.05;102368.25;7353853;19;20435;-61
2023/05/13 03:13:07;;;;;;;;;;;;;;;12.91;55.31;102356.88;7358490;19;20280;-61
2023/05/13 03:15:32;;;;;;;;;;;;;;;12.90;55.35;102357.78;7359929;19;19930;-61
2023/05/13 03:17:57;;;;;;;;;;;;;;;12.90;55.90;102349.91;7354913;19;19926;-61
2023/05/13 03:20:22;;;;;;;;;;;;;;;12.91;55.67;102356.03;7335242;19;19946;-61
2023/05/13 03:22:48;;;;;;;;;;;;;;;12.93;55.60;102356.91;7350068;19;19934;-61
2023/05/13 03:25:13;;;;;;;;;;;;;;;12.96;56.10;102360.34;7348863;19;19923;-61
2023/05/13 03:27:38;;;;;;;;;;;;;;;12.98;55.85;102365.63;7351452;19;19932;-61
2023/05/13 03:30:04;;;;;;;;;;;;;;;13.03;55.99;102355.06;7351321;19;20351;-61
2023/05/13 03:32:30;;;;;;;;;;;;;;;13.07;56.25;102359.41;7350500;19;19919;-61
2023/05/13 03:34:56;;;;;;;;;;;;;;;13.11;56.44;102359.38;7350452;19;19939;-61
2023/05/13 03:37:22;;;;;;;;;;;;;;;13.16;56.50;102354.97;7350753;19;20786;-61
2023/05/13 03:39:47;;;;;;;;;;;;;;;13.20;56.42;102356.72;7351069;19;19992;-61
2023/05/13 03:42:12;;;;;;;;;;;;;;;13.26;56.41;102362.81;7337782;19;19922;-61
2023/05/13 03:44:38;;;;;;;;;;;;;;;13.31;56.42;102361.91;7350344;19;19939;-61
2023/05/13 03:47:03;;;;;;;;;;;;;;;13.36;56.66;102370.63;7347400;19;19926;-62
2023/05/13 03:49:28;;;;;;;;;;;;;;;13.41;56.32;102373.22;7352843;19;19907;-61
2023/05/13 03:51:53;;;;;;;;;;;;;;;13.45;56.65;102369.69;7347196;19;19939;-61
2023/05/13 03:54:19;;;;;;;;;;;;;;;13.48;56.89;102370.53;7350272;19;20653;-61
2023/05/13 03:56:44;;;;;;;;;;;;;;;13.50;56.76;102373.13;7351106;19;20597;-61
2023/05/13 03:59:09;;;;;;;;;;;;;;;13.54;56.60;102364.38;7355183;19;19934;-61
2023/05/13 04:01:35;;;;;;;;;;;;;;;13.57;56.64;102369.56;7354285;19;19915;-61
2023/05/13 04:04:00;;;;;;;;;;;;;;;13.60;56.96;102368.69;7353117;19;20048;-61
2023/05/13 04:06:25;;;;;;;;;;;;;;;13.63;56.90;102372.13;7346970;19;20550;-61
2023/05/13 04:08:51;;;;;;;;;;;;;;;13.65;56.59;102370.38;7357742;19;19935;-61
2023/05/13 04:11:16;;;;;;;;;;;;;;;13.68;56.99;102372.09;7359370;19;19961;-61
2023/05/13 04:13:44;;;;;;;;;;;;;;;13.70;57.20;102363.34;7359379;19;19934;-61
2023/05/13 04:16:09;;;;;;;;;;;;;;;13.74;56.78;102365.06;7360305;19;19933;-61
2023/05/13 04:18:35;;;;;;;;;;;;;;;13.76;56.86;102362.41;7358378;19;19919;-61
2023/05/13 04:21:04;;;;;;;;;;;;;;;13.79;56.84;102364.13;7359241;19;19929;-61
2023/05/13 04:23:30;;;;;;;;;;;;;;;13.81;56.90;102368.50;7355501;19;20057;-61
2023/05/13 04:25:55;;;;;;;;;;;;;;;13.84;57.22;102367.56;7359203;19;19990;-61
2023/05/13 04:28:20;;;;;;;;;;;;;;;13.86;57.32;102365.81;7357898;19;19928;-61
2023/05/13 04:30:45;;;;;;;;;;;;;;;13.88;56.99;102364.03;7359503;19;19923;-61
2023/05/13 04:33:11;;;;;;;;;;;;;;;13.89;57.14;102360.50;7354809;19;19926;-61
2023/05/13 04:35:36;;;;;;;;;;;;;;;13.91;57.13;102359.63;7357038;19;19918;-61
2023/05/13 04:38:02;;;;;;;;;;;;;;;13.93;57.25;102359.59;7352545;19;21529;-61
2023/05/13 04:40:28;;;;;;;;;;;;;;;13.93;57.43;102346.47;7358805;19;19923;-61
2023/05/13 04:42:53;;;;;;;;;;;;;;;13.94;57.26;102350.88;7358783;19;19911;-61
2023/05/13 04:45:19;;;;;;;;;;;;;;;13.95;57.33;102344.72;7355945;19;19998;-61
2023/05/13 04:47:44;;;;;;;;;;;;;;;13.94;57.29;102343.00;7355596;19;20106;-61
2023/05/13 04:50:09;;;;;;;;;;;;;;;13.97;57.60;102348.19;7357457;19;20399;-61
2023/05/13 04:52:36;;;;;;;;;;;;;;;13.96;57.40;102354.34;7356799;19;21007;-61
2023/05/13 04:55:01;;;;;;;;;;;;;;;13.96;57.99;102352.56;7357858;19;20261;-61
2023/05/13 04:57:26;;;;;;;;;;;;;;;13.97;57.72;102353.44;7358274;19;19929;-61
2023/05/13 04:59:51;;;;;;;;;;;;;;;13.99;57.65;102354.31;7357828;19;19927;-61
2023/05/13 05:02:17;;;;;;;;;;;;;;;13.99;57.77;102351.69;7355418;19;19914;-61
2023/05/13 05:04:43;;;;;;;;;;;;;;;14.00;58.04;102358.69;7357486;19;19922;-61
2023/05/13 05:07:08;;;;;;;;;;;;;;;14.00;58.19;102359.53;7353658;19;19918;-61
2023/05/13 05:09:33;;;;;;;;;;;;;;;13.76;57.89;102318.63;7356965;19;19930;-61
2023/05/13 05:11:59;;;;;;;;;;;;;;;14.02;57.87;102362.16;7357380;19;19921;-61
2023/05/13 05:14:24;;;;;;;;;;;;;;;14.03;57.92;102363.88;7354530;19;19934;-61
2023/05/13 05:16:50;;;;;;;;;;;;;;;14.05;58.06;102366.50;7358598;19;19925;-61
2023/05/13 05:19:15;;;;;;;;;;;;;;;14.05;57.99;102367.38;7356233;19;19919;-61
2023/05/13 05:21:40;;;;;;;;;;;;;;;14.06;58.08;102363.88;7355716;19;19929;-61
2023/05/13 05:24:06;;;;;;;;;;;;;;;14.08;58.46;102358.59;7352274;19;19954;-61
2023/05/13 05:26:31;;;;;;;;;;;;;;;14.09;58.20;102357.69;7357391;19;20714;-61
2023/05/13 05:28:56;;;;;;;;;;;;;;;14.10;58.29;102357.69;7356817;19;19918;-62
2023/05/13 05:31:21;;;;;;;;;;;;;;;14.12;58.64;102358.53;7353338;19;20002;-61
2023/05/13 05:33:46;;;;;;;;;;;;;;;14.13;58.40;102356.78;7355612;19;19936;-61
2023/05/13 05:36:12;;;;;;;;;;;;;;;14.14;58.85;102354.16;7357299;19;19922;-61
2023/05/13 05:38:37;;;;;;;;;;;;;;;14.17;58.98;102359.34;7354800;19;19919;-61
2023/05/13 05:41:02;;;;;;;;;;;;;;;14.18;58.50;102353.19;7355891;19;19935;-61
2023/05/13 05:43:28;;;;;;;;;;;;;;;13.86;58.56;102292.28;7353446;19;19955;-61
2023/05/13 05:45:53;;;;;;;;;;;;;;;14.23;58.92;102351.41;7355460;19;19915;-61
2023/05/13 05:48:18;;;;;;;;;;;;;;;14.26;58.88;102356.63;7353383;19;19922;-61
2023/05/13 05:50:44;;;;;;;;;;;;;;;14.28;58.88;102344.31;7357862;19;19919;-61
2023/05/13 05:53:09;;;;;;;;;;;;;;;14.32;59.04;102349.56;7355006;19;19945;-61
2023/05/13 05:55:34;;;;;;;;;;;;;;;14.34;59.06;102347.78;7357214;19;19933;-61
2023/05/13 05:58:04;;;;;;;;;;;;;;;14.36;58.89;102352.13;7341629;19;20216;-61
2023/05/13 06:00:29;;;;;;;;;;;;;;;14.39;58.64;102352.06;7351206;19;19966;-61
2023/05/13 06:02:55;;;;;;;;;;;;;;;14.43;59.14;102352.91;7351905;19;20336;-61
2023/05/13 06:05:21;;;;;;;;;;;;;;;14.23;58.81;102317.25;7352054;19;19923;-61
2023/05/13 06:07:46;;;;;;;;;;;;;;;14.46;59.41;102352.91;7353343;19;19921;-62
2023/05/13 06:10:11;;;;;;;;;;;;;;;14.48;59.41;102364.28;7352766;19;19919;-61
2023/05/13 06:12:37;;;;;;;;;;;;;;;14.51;59.43;102357.25;7348774;19;20483;-61
2023/05/13 06:15:05;;;;;;;;;;;;;;;14.54;59.34;102353.69;7352379;19;19994;-61
2023/05/13 06:17:30;;;;;;;;;;;;;;;14.57;59.25;102356.28;7352676;19;20022;-61
2023/05/13 06:19:55;;;;;;;;;;;;;;;14.60;59.31;102363.25;7352108;19;20002;-61
2023/05/13 06:22:21;;;;;;;;;;;;;;;14.63;59.26;102366.72;7350522;19;19926;-62
2023/05/13 06:24:46;;;;;;;;;;;;;;;14.65;59.39;102370.22;7354257;19;19927;-61
2023/05/13 06:27:11;;;;;;;;;;;;;;;14.67;59.30;102365.78;7350506;19;20443;-61
2023/05/13 06:29:37;;;;;;;;;;;;;;;14.71;59.53;102369.25;7352309;19;19933;-61
2023/05/13 06:32:02;;;;;;;;;;;;;;;14.74;59.45;102361.31;7351984;19;19927;-61
2023/05/13 06:34:27;;;;;;;;;;;;;;;14.76;59.27;102362.19;7347495;19;19921;-61
2023/05/13 06:36:52;;;;;;;;;;;;;;;14.78;59.25;102358.63;7351186;19;20601;-61
2023/05/13 06:39:18;;;;;;;;;;;;;;;14.81;59.71;102368.25;7354460;19;21883;-61
2023/05/13 06:41:43;;;;;;;;;;;;;;;14.85;59.59;102366.41;7349372;19;19934;-61
2023/05/13 06:44:08;;;;;;;;;;;;;;;14.87;59.90;102364.66;7351325;19;19925;-62
2023/05/13 06:46:33;;;;;;;;;;;;;;;14.90;59.95;102361.97;7351921;19;19957;-61
2023/05/13 06:48:59;;;;;;;;;;;;;;;14.94;60.01;102350.53;7352899;19;19938;-62
2023/05/13 06:51:29;;;;;;;;;;;;;;;14.97;59.97;102348.72;7350089;19;20000;-61
2023/05/13 06:53:54;;;;;;;;;;;;;;;15.02;59.60;102353.91;7350285;19;20350;-61
2023/05/13 06:56:21;;;;;;;;;;;;;;;15.07;59.48;102352.09;7349446;19;19925;-62
2023/05/13 06:58:47;;;;;;;;;;;;;;;15.11;59.61;102356.41;7346600;19;19915;-61
2023/05/13 07:01:12;;;;;;;;;;;;;;;15.15;59.68;102355.44;7348698;19;20039;-61
2023/05/13 07:03:38;;;;;;;;;;;;;;;15.18;59.85;102352.78;7351173;19;19915;-61
2023/05/13 07:06:03;;;;;;;;;;;;;;;15.22;59.86;102348.34;7350684;19;19931;-62
2023/05/13 07:08:28;;;;;;;;;;;;;;;15.26;59.63;102348.28;7352334;19;19974;-61
2023/05/13 07:10:54;;;;;;;;;;;;;;;15.30;59.87;102349.94;7349052;19;19927;-61
2023/05/13 07:13:19;;;;;;;;;;;;;;;15.34;60.15;102350.78;7352249;19;20702;-62
2023/05/13 07:15:46;;;;;;;;;;;;;;;15.37;60.00;102353.38;7351170;19;19911;-62
2023/05/13 07:18:11;;;;;;;;;;;;;;;15.43;60.21;102355.03;7351400;19;19927;-61
2023/05/13 07:20:36;;;;;;;;;;;;;;;15.46;59.54;102342.69;7347533;19;20355;-62
2023/05/13 07:23:02;;;;;;;;;;;;;;;15.50;59.99;102340.84;7351756;19;19934;-61
2023/05/13 07:25:27;;;;;;;;;;;;;;;15.53;59.80;102340.81;7352796;19;19930;-62
2023/05/13 07:27:52;;;;;;;;;;;;;;;15.54;59.93;102332.88;7352658;19;20745;-62
2023/05/13 07:30:18;;;;;;;;;;;;;;;15.57;60.17;102331.97;7350229;19;19947;-61
2023/05/13 07:32:43;;;;;;;;;;;;;;;15.60;59.75;102337.19;7351804;19;19911;-63
2023/05/13 07:35:09;;;;;;;;;;;;;;;15.63;59.86;102337.16;7350402;19;19978;-61
2023/05/13 07:37:35;;;;;;;;;;;;;;;15.67;60.11;102338.00;7353710;19;19921;-61
2023/05/13 07:40:01;;;;;;;;;;;;;;;15.70;59.88;102343.19;7349048;19;19918;-62
2023/05/13 07:42:28;;;;;;;;;;;;;;;15.73;59.78;102343.13;7351095;19;20418;-61
2023/05/13 07:44:54;;;;;;;;;;;;;;;15.75;60.29;102342.19;7350745;19;19933;-61
2023/05/13 07:47:19;;;;;;;;;;;;;;;15.78;60.25;102336.88;7361037;19;19923;-61
2023/05/13 07:49:44;;;;;;;;;;;;;;;15.81;60.23;102342.13;7352777;19;19915;-62
2023/05/13 07:52:09;;;;;;;;;;;;;;;15.86;60.34;102334.09;7353591;19;19927;-61
2023/05/13 07:54:35;;;;;;;;;;;;;;;15.91;60.02;102341.91;7357798;19;19928;-62
2023/05/13 07:57:00;;;;;;;;;;;;;;;15.96;60.32;102340.94;7356613;19;19922;-61
2023/05/13 07:59:25;;;;;;;;;;;;;;;16.02;59.55;102342.63;7353302;19;19922;-61
2023/05/13 08:01:52;;;;;;;;;;;;;;;16.05;59.70;102340.75;7354651;19;20265;-61
2023/05/13 08:04:17;;;;;;;;;;;;;;;16.08;59.05;102342.50;7355703;19;20049;-61
2023/05/13 08:06:42;;;;;;;;;;;;;;;16.09;59.47;102346.84;7357195;19;19982;-61
2023/05/13 08:09:08;;;;;;;;;;;;;;;16.11;60.03;102345.03;7347938;19;19931;-62
2023/05/13 08:11:34;;;;;;;;;;;;;;;16.13;59.64;102338.00;7342874;19;19946;-61
2023/05/13 08:13:59;;;;;;;;;;;;;;;16.17;60.31;102350.22;7352551;19;19923;-62
2023/05/13 08:16:24;;;;;;;;;;;;;;;16.21;60.06;102341.31;7350749;19;19954;-62
2023/05/13 08:18:50;;;;;;;;;;;;;;;16.27;59.85;102346.50;7355455;19;20015;-62
2023/05/13 08:21:15;;;;;;;;;;;;;;;16.32;60.07;102344.63;7356529;19;20696;-61
2023/05/13 08:23:40;;;;;;;;;;;;;;;16.38;59.62;102346.28;7353622;19;19922;-62
2023/05/13 08:26:05;;;;;;;;;;;;;;;16.42;59.85;102350.56;7355695;19;19922;-61
2023/05/13 08:28:31;;;;;;;;;;;;;;;16.46;59.66;102356.66;7355844;19;19941;-62
2023/05/13 08:31:01;;;;;;;;;;;;;;;16.49;59.68;102356.59;7355177;19;19935;-62
2023/05/13 08:33:30;;;;;;;;;;;;;;;16.53;60.19;102358.28;7344410;19;19969;-62
2023/05/13 08:35:55;;;;;;;;;;;;;;;16.58;60.08;102353.78;7343059;19;19926;-62
2023/05/13 08:38:21;;;;;;;;;;;;;;;16.64;60.25;102358.03;7355757;19;19926;-61
2023/05/13 08:40:46;;;;;;;;;;;;;;;16.69;59.94;102350.91;7352288;19;19930;-62
2023/05/13 08:43:13;;;;;;;;;;;;;;;16.46;60.14;102306.56;7340342;19;21977;-62
2023/05/13 08:45:39;;;;;;;;;;;;;;;16.82;59.88;102349.75;7356410;19;20177;-61
2023/05/13 08:48:05;;;;;;;;;;;;;;;16.85;59.72;102355.81;7352081;19;19941;-62
2023/05/13 08:50:30;;;;;;;;;;;;;;;16.90;60.19;102357.50;7354023;19;19996;-62
2023/05/13 08:52:57;;;;;;;;;;;;;;;16.94;60.09;102360.03;7350809;19;19923;-61
2023/05/13 08:55:22;;;;;;;;;;;;;;;16.98;59.57;102356.44;7352623;19;19934;-62
2023/05/13 08:57:48;;;;;;;;;;;;;;;17.03;60.14;102358.94;7346732;19;20525;-61
2023/05/13 09:00:13;;;;;;;;;;;;;;;17.07;60.07;102358.84;7351769;19;19926;-61
2023/05/13 09:02:40;;;;;;;;;;;;;;;17.11;59.83;102354.34;7353786;19;19918;-62
2023/05/13 09:05:06;;;;;;;;;;;;;;;17.15;59.93;102353.38;7357851;19;19907;-61
2023/05/13 09:07:31;;;;;;;;;;;;;;;17.19;59.63;102352.41;7354368;19;19935;-62
2023/05/13 09:09:57;;;;;;;;;;;;;;;17.23;59.66;102351.41;7356405;19;19911;-61
2023/05/13 09:12:42;;;;;;;;;;;;;;;17.27;60.03;102357.50;7352992;19;19918;-62
2023/05/13 09:15:08;;;;;;;;;;;;;;;17.31;60.05;102354.75;7350341;19;19929;-61
2023/05/13 09:17:37;;;;;;;;;;;;;;;17.35;59.93;102356.41;7356211;19;19914;-62
2023/05/13 09:20:12;;;;;;;;;;;;;;;17.38;59.71;102358.97;7354026;19;20343;-61
2023/05/13 09:22:44;;;;;;;;;;;;;;;17.43;60.04;102358.00;7354578;19;19922;-61
2023/05/13 09:25:13;;;;;;;;;;;;;;;17.48;59.75;102356.09;7354545;19;19922;-62
2023/05/13 09:27:40;;;;;;;;;;;;;;;17.52;59.74;102350.69;7356050;19;19934;-62
2023/05/13 09:30:06;;;;;;;;;;;;;;;17.57;60.25;102351.44;7355997;19;19922;-61
2023/05/13 09:32:31;;;;;;;;;;;;;;;17.63;60.20;102346.00;7347685;19;19957;-62
2023/05/13 09:34:56;;;;;;;;;;;;;;;17.72;60.22;102355.47;7347211;19;19922;-61
2023/05/13 09:37:22;;;;;;;;;;;;;;;17.79;60.12;102350.91;7354189;19;19919;-62
2023/05/13 09:39:50;;;;;;;;;;;;;;;17.87;59.66;102348.94;7350310;19;19922;-61
2023/05/13 09:42:16;;;;;;;;;;;;;;;17.93;59.65;102342.63;7338645;19;19974;-62
2023/05/13 09:44:42;;;;;;;;;;;;;;;17.97;59.87;102333.72;7346440;19;19918;-61
2023/05/13 09:47:10;;;;;;;;;;;;;;;18.03;59.70;102333.53;7338100;19;19925;-61
2023/05/13 09:49:36;;;;;;;;;;;;;;;18.07;59.68;102332.56;7351389;19;19929;-62
2023/05/13 09:52:01;;;;;;;;;;;;;;;18.08;59.56;102321.91;7353628;19;20033;-62
2023/05/13 09:54:33;;;;;;;;;;;;;;;18.12;59.42;102322.72;7345458;19;19918;-61
2023/05/13 09:57:00;;;;;;;;;;;;;;;18.16;59.75;102324.38;7351396;19;20026;-61
2023/05/13 09:59:25;;;;;;;;;;;;;;;18.20;59.48;102320.72;7353581;19;20248;-62
2023/05/13 10:01:52;;;;;;;;;;;;;;;18.25;59.23;102317.91;7353538;19;19929;-62
2023/05/13 10:04:17;;;;;;;;;;;;;;;18.28;59.35;102313.44;7352654;19;19911;-61
2023/05/13 10:06:44;;;;;;;;;;;;;;;18.32;59.29;102315.06;7353007;19;19952;-62
2023/05/13 10:09:10;;;;;;;;;;;;;;;18.36;59.10;102316.72;7347158;19;19914;-62
2023/05/13 10:11:35;;;;;;;;;;;;;;;18.39;59.59;102311.31;7352285;19;19921;-62
2023/05/13 10:14:03;;;;;;;;;;;;;;;18.45;59.09;102309.41;7348471;19;20334;-62
2023/05/13 10:16:30;;;;;;;;;;;;;;;18.50;59.54;102308.38;7347767;19;20847;-62
2023/05/13 10:18:56;;;;;;;;;;;;;;;18.55;59.56;102302.94;7349872;19;19953;-62
2023/05/13 10:21:21;;;;;;;;;;;;;;;18.61;59.47;102297.47;7344371;19;19922;-62
2023/05/13 10:23:50;;;;;;;;;;;;;;;18.62;59.06;102296.56;7351187;19;20336;-62
2023/05/13 10:26:16;;;;;;;;;;;;;;;18.73;59.04;102301.53;7348291;19;19926;-62
2023/05/13 10:28:42;;;;;;;;;;;;;;;18.77;58.94;102301.41;7326843;19;19914;-62
2023/05/13 10:31:07;;;;;;;;;;;;;;;18.81;59.12;102291.59;7339993;19;20435;-62
2023/05/13 10:33:33;;;;;;;;;;;;;;;18.85;59.43;102288.78;7338393;19;19923;-62
2023/05/13 10:36:18;;;;;;;;;;;;;;;18.92;58.68;102290.31;7337202;19;20958;-62
2023/05/13 10:39:16;;;;;;;;;;;;;;;18.99;58.95;102287.47;7337513;19;19943;-62
2023/05/13 10:41:44;;;;;;;;;;;;;;;19.05;58.47;102282.81;7230843;19;2004362;-62
2023/05/13 10:44:10;;;;;;;;;;;;;;;19.09;58.80;102275.66;7339094;19;19922;-62
2023/05/13 10:46:38;;;;;;;;;;;;;;;19.14;58.78;102279.03;7338481;19;19944;-62
2023/05/13 10:49:03;;;;;;;;;;;;;;;19.21;58.67;102274.38;7337310;19;19952;-62
2023/05/13 10:51:29;;;;;;;;;;;;;;;19.30;58.97;102284.66;7339223;19;20627;-62
2023/05/13 10:53:56;;;;;;;;;;;;;;;19.38;58.67;102272.03;7337390;19;19938;-61
2023/05/13 10:56:25;;;;;;;;;;;;;;;19.48;58.56;102267.28;7341668;19;20285;-62
2023/05/13 10:58:58;;;;;;;;;;;;;;;19.62;58.78;102265.06;7337275;19;20030;-62
2023/05/13 11:01:30;;;;;;;;;;;;;;;19.73;58.69;102260.22;7339120;19;19929;-62
2023/05/13 11:03:59;;;;;;;;;;;;;;;19.83;58.45;102261.63;7340027;19;20478;-62
2023/05/13 11:06:38;;;;;;;;;;;;;;;19.95;58.75;102261.16;7339116;19;19934;-62
2023/05/13 11:09:08;;;;;;;;;;;;;;;20.09;58.11;102258.00;7334604;19;20045;-62
2023/05/13 11:11:34;;;;;;;;;;;;;;;20.24;58.13;102253.91;7339209;19;19957;-62
2023/05/13 11:14:07;;;;;;;;;;;;;;;20.40;58.51;102255.03;7338369;19;20376;-62
2023/05/13 11:16:33;;;;;;;;;;;;;;;20.57;58.28;102256.19;7340041;19;20343;-63
2023/05/13 11:18:58;;;;;;;;;;;;;;;20.72;57.95;102250.25;7340872;19;19929;-62
2023/05/13 11:21:34;;;;;;;;;;;;;;;20.85;58.06;102256.81;7343204;19;19927;-61
2023/05/13 11:24:03;;;;;;;;;;;;;;;21.02;57.87;102257.91;7337911;19;19951;-62
2023/05/13 11:26:45;;;;;;;;;;;;;;;21.13;57.51;102253.84;7347058;19;20014;-62
2023/05/13 11:29:11;;;;;;;;;;;;;;;21.27;57.50;102245.31;7342987;19;19922;-63
2023/05/13 11:31:51;;;;;;;;;;;;;;;21.37;57.50;102254.63;7341937;19;19922;-62
2023/05/13 11:34:17;;;;;;;;;;;;;;;21.50;57.26;102254.97;7343475;19;19927;-62
2023/05/13 11:36:50;;;;;;;;;;;;;;;21.64;57.27;102257.00;7343748;19;20670;-62
2023/05/13 11:39:16;;;;;;;;;;;;;;;21.78;57.36;102249.28;7345040;19;19958;-62
2023/05/13 11:41:43;;;;;;;;;;;;;;;21.88;57.29;102234.63;7345467;19;19941;-62
2023/05/13 11:44:09;;;;;;;;;;;;;;;22.02;57.05;102248.16;7342755;19;20749;-62
2023/05/13 11:46:35;;;;;;;;;;;;;;;22.16;56.76;102244.06;7344382;19;20816;-62
2023/05/13 11:49:00;;;;;;;;;;;;;;;22.28;56.88;102240.81;7344181;19;19926;-62
2023/05/13 11:51:25;;;;;;;;;;;;;;;22.41;56.49;102239.28;7344093;19;19999;-62
2023/05/13 11:53:53;;;;;;;;;;;;;;;22.54;56.74;102245.72;7342804;19;19923;-62
2023/05/13 11:56:24;;;;;;;;;;;;;;;22.39;56.85;102198.56;7345788;19;19971;-62
2023/05/13 11:58:50;;;;;;;;;;;;;;;22.84;56.58;102247.84;7338868;19;19943;-62
2023/05/13 12:01:15;;;;;;;;;;;;;;;23.02;56.28;102235.44;7345254;19;19922;-62
2023/05/13 12:03:40;;;;;;;;;;;;;;;23.20;56.58;102241.63;7343325;19;19923;-62
2023/05/13 12:06:06;;;;;;;;;;;;;;;23.45;56.64;102244.75;7342675;19;20306;-62
2023/05/13 12:08:31;;;;;;;;;;;;;;;23.84;58.06;102232.09;7341750;19;20179;-62
2023/05/13 12:10:58;;;;;;;;;;;;;;;24.30;57.83;102228.59;7344247;19;21054;-62
2023/05/13 12:13:23;;;;;;;;;;;;;;;24.76;56.56;102233.13;7344925;19;20248;-62
2023/05/13 12:15:49;;;;;;;;;;;;;;;25.15;56.24;102237.13;7344341;19;19919;-62
2023/05/13 12:18:14;;;;;;;;;;;;;;;25.47;55.38;102233.34;7339883;19;19925;-62
2023/05/13 12:20:39;;;;;;;;;;;;;;;25.77;54.90;102235.13;7339279;19;19933;-62
2023/05/13 12:23:05;;;;;;;;;;;;;;;26.06;55.40;102236.84;7339728;19;19918;-62
2023/05/13 12:25:47;;;;;;;;;;;;;;;26.39;55.28;102219.53;7342421;19;19986;-62
2023/05/13 12:28:12;;;;;;;;;;;;;;;26.80;55.01;102226.69;7346143;19;19936;-62
2023/05/13 12:30:53;;;;;;;;;;;;;;;27.30;56.48;102225.09;7341119;19;20371;-62